Bunker Hill, KS (67626)

2:12 PM CDT on April 19, 2015 (GMT -0500)
Russell Municipal | | Change Station
CLOSE
Current Station
Airport
Location: Russell,
Elevation: 1864 ft
Nearby Weather Stations

Elev 1864 ft 38.87 °N, 98.81 °W | Updated 19 minutes ago

Overcast
Overcast
49 °F
Feels Like 49 °F
N
33
Wind Variable Wind from NNW
Gusts 44 mph

Today
High -- | Low -- °F
--% Chance of Precip.
Yesterday
High -- | Low -- °F
Precip. -- in
6:52 AM 8:15 PM
New Moon, 1% visible
Pressure 29.92 in
Visibility 10.0 miles
Clouds Mostly Cloudy 2100 ft
Mostly Cloudy 2900 ft
Overcast 10000 ft
Dew Point 41 °F
Humidity 74%
Rainfall 0.01 in
Snow Depth Not available.
UV 3 out of 12
Pollen 5.00 out of 12
Air Quality Not available.
Flu Activity Sporadic
METAR KRSL 191853Z AUTO 34029G38KT 10SM -RA BKN021 BKN029 OVC100 09/05 A2991 RMK AO2 PK WND 35044/1759 RAB1759E09B36 SLP132 P0000 T00940050

More Conditions Fewer Conditions

Pressure 29.92 in
Visibility 10.0 miles
Clouds Mostly Cloudy 2100 ft
Mostly Cloudy 2900 ft
Overcast 10000 ft
Dew Point 41 °F
Humidity 74%
Rainfall 0.01 in
Snow Depth Not available.
UV 3 out of 12
Pollen 5.00 out of 12
Air Quality Not available.
Flu Activity Sporadic
METAR KRSL 191853Z AUTO 34029G38KT 10SM -RA BKN021 BKN029 OVC100 09/05 A2991 RMK AO2 PK WND 35044/1759 RAB1759E09B36 SLP132 P0000 T00940050

More Conditions Fewer Conditions

10-Day Weather Forecast

Almanac

Astronomy

Apr. 19, 2015 Rise Set
Actual Time
Civil Twilight
Nautical Twilight
Astronomical Twilight
Moon
Length of Visible Light
Length of Day
Tomorrow will be .
, % of the Moon is Illuminated

Today's Extremes

State Highs State Lows

Community

WunderPhotos

Upload Photos

1,814,925 photos uploaded!

WunderBlogs® & News

Nearby

Air Quality

  Air Quality AQ Index Pollutant
Not available.

Snow Depth

Station Depth Elevation

Earthquake Activity

City Distance Mag. Time & Date
Minimum magnitude displayed is 2.5.

Coastal Water Temperatures

Place Temperature

Stations

Nearby Weather Stations

Station Location Temp. Windchill Dew Point Humidity Wind Precip. Elev Updated Type